Pennville, Pennsylvania
Current Conditions -  °F | °C
As of 6:53 PM on Thursday 18 Dec 2014 (Local Time) from KTHV Reporting Station
Overcast Overcast  
Wind Chill: 30°   Ceiling: 3200
Heat Index: 34°   Visibility: 10mi
Dew Point: 24°   Wind: 5mph
Humidity: 67%   Direction: 270°W
Pressure: 30.07"   Gusts: NA
Location:  39.7863°N, 76.988°W
Report Text: KTHV 182353Z AUTO 27004KT 10SM OVC032 01/M04 A3007 RMK AO2 SLP191 T00111044 10022 20011 53003
Loading
Personal Weather Stations






























Interactive Weather Map New forecast layout! Learn more

10-Day Weather Forecast

Advertisements
Track Severe Weather on mobile